ESSD/BLE METAR and TAF weather

Enter ICAO airport designator
Station Type Date Time Source
ESSD METAR 2019/10/20 22:20 UTC NOAA

ESSD 202220Z AUTO 35005KT 7000 BR OVC003/// 03/02 Q1015 RESHUP REUP


Station Type Date Time Source
ESSD Decoded METAR 2019/10/20 22:20 UTC NOAA

Borlange, Sweden (ESSD) 60-26N 015-31E 0M
Oct 20, 2019 - 06:20 PM EDT / 2019.10.20 2220 UTC
Wind: from the N (350 degrees) at 6 MPH (5 KT):0
Visibility: 4 mile(s):0
Sky conditions: overcast
Weather: mist
Temperature: 37 F (3 C)
Dew Point: 35 F (2 C)
Relative Humidity: 93%
Pressure (altimeter): 29.97 in. Hg (1015 hPa)
ob: ESSD 202220Z AUTO 35005KT 7000 BR OVC003/// 03/02 Q1015 RESHUP REUP
cycle: 22

Station Type Date Time Source
ESSD TAF 2018/05/02 04:48 UTC NOAA

TAF TAF ESSD 020320Z 0204/0412 27008KT 9999 BKN019 PROB40 0204/0209 BKN006

Example: see airport list